Time;durP1;ratioP1;P1;durP2;ratioP2;P2;SDS_P1;SDS_P2;PMS_P1;PMS_P2;Temp;Humidity;BMP_temperature;BMP_pressure;BME280_temperature;BME280_humidity;BME280_pressure;Samples;Min_cycle;Max_cycle;Signal;HPM_P1;HPM_P2
2022/07/05 00:01:28;;;;;;;0.70;0.70;;;20.80;92.40;;;;;;5111826;28;20212;-62
2022/07/05 00:03:55;;;;;;;0.57;0.57;;;20.80;92.50;;;;;;5111672;28;20266;-62
2022/07/05 00:06:22;;;;;;;0.68;0.68;;;20.80;92.60;;;;;;5111794;28;20651;-62
2022/07/05 00:08:49;;;;;;;1.23;0.75;;;20.80;92.70;;;;;;5106096;28;20207;-62
2022/07/05 00:11:16;;;;;;;1.52;0.80;;;20.80;92.70;;;;;;5111948;28;20196;-60
2022/07/05 00:13:43;;;;;;;0.90;0.90;;;20.70;92.70;;;;;;5111293;28;20670;-61
2022/07/05 00:16:10;;;;;;;0.70;0.70;;;20.70;92.80;;;;;;5111571;28;20735;-62
2022/07/05 00:18:39;;;;;;;0.75;0.75;;;20.70;92.80;;;;;;5108879;28;20295;-61
2022/07/05 00:21:06;;;;;;;0.77;0.77;;;20.70;92.90;;;;;;5111326;28;20187;-62
2022/07/05 00:23:33;;;;;;;0.70;0.70;;;20.70;93.00;;;;;;5100136;28;20224;-61
2022/07/05 00:26:00;;;;;;;0.80;0.60;;;20.70;93.10;;;;;;5103240;28;20282;-61
2022/07/05 00:28:27;;;;;;;0.70;0.70;;;20.70;93.10;;;;;;5102971;28;20967;-60
2022/07/05 00:30:54;;;;;;;0.80;0.80;;;20.60;93.10;;;;;;5095669;28;20574;-60
2022/07/05 00:33:21;;;;;;;0.80;0.80;;;20.60;93.10;;;;;;5096425;28;20206;-61
2022/07/05 00:35:50;;;;;;;0.63;0.63;;;20.60;93.10;;;;;;5108156;28;20428;-61
2022/07/05 00:38:17;;;;;;;0.60;0.60;;;20.70;93.20;;;;;;5110209;28;20195;-61
2022/07/05 00:40:44;;;;;;;0.70;0.70;;;20.60;93.10;;;;;;5111801;28;20200;-61
2022/07/05 00:43:11;;;;;;;0.70;0.70;;;20.60;93.20;;;;;;5098789;28;20306;-60
2022/07/05 00:45:38;;;;;;;0.68;0.68;;;20.50;93.20;;;;;;5110999;28;20195;-61
2022/07/05 00:48:06;;;;;;;0.70;0.70;;;20.50;93.20;;;;;;5106065;28;20196;-60
2022/07/05 00:50:34;;;;;;;0.60;0.60;;;20.40;93.20;;;;;;5100796;28;20272;-61
2022/07/05 00:53:02;;;;;;;0.93;0.68;;;20.40;93.30;;;;;;5094650;28;20207;-61
2022/07/05 00:55:29;;;;;;;0.52;0.52;;;20.30;93.30;;;;;;5102486;28;20247;-61
2022/07/05 00:57:56;;;;;;;0.60;0.60;;;20.30;93.40;;;;;;5111050;28;20246;-60
2022/07/05 01:00:23;;;;;;;0.50;0.50;;;20.30;93.50;;;;;;5110675;28;20245;-62
2022/07/05 01:02:51;;;;;;;0.50;0.50;;;20.30;93.50;;;;;;5098541;28;20277;-61
2022/07/05 01:05:18;;;;;;;0.55;0.55;;;20.30;93.50;;;;;;5111005;28;20284;-61
2022/07/05 01:07:45;;;;;;;2.85;0.70;;;20.30;93.50;;;;;;5109580;28;20245;-61
2022/07/05 01:10:14;;;;;;;1.25;0.70;;;20.30;93.50;;;;;;5111485;28;20196;-60
2022/07/05 01:12:41;;;;;;;0.63;0.63;;;20.30;93.60;;;;;;5104307;28;20862;-60
2022/07/05 01:15:10;;;;;;;0.80;0.80;;;20.30;93.50;;;;;;5100372;28;20662;-60
2022/07/05 01:17:37;;;;;;;0.60;0.60;;;20.30;93.60;;;;;;5109342;28;20196;-60
2022/07/05 01:20:07;;;;;;;0.80;0.80;;;20.30;93.60;;;;;;5111136;28;20199;-60
2022/07/05 01:22:52;;;;;;;1.00;1.00;;;20.20;93.60;;;;;;5097599;28;20224;-60
2022/07/05 01:25:21;;;;;;;0.70;0.70;;;20.20;93.60;;;;;;5104406;28;20219;-60
2022/07/05 01:27:48;;;;;;;0.73;0.73;;;20.20;93.70;;;;;;5110496;28;20195;-60
2022/07/05 01:30:16;;;;;;;0.60;0.60;;;20.10;93.70;;;;;;5110709;28;20206;-61
2022/07/05 01:32:43;;;;;;;0.70;0.70;;;20.00;93.70;;;;;;5109424;28;20227;-61
2022/07/05 01:35:11;;;;;;;0.80;0.77;;;19.90;93.70;;;;;;5098096;28;20743;-61
2022/07/05 01:37:39;;;;;;;0.63;0.63;;;20.00;93.80;;;;;;5094088;28;20220;-61
2022/07/05 01:40:08;;;;;;;0.80;0.80;;;19.90;93.80;;;;;;5115048;28;20215;-61
2022/07/05 01:42:35;;;;;;;0.80;0.80;;;19.90;93.90;;;;;;5114110;28;20674;-61
2022/07/05 01:45:03;;;;;;;0.50;0.50;;;19.90;94.00;;;;;;5103868;28;20198;-62
2022/07/05 01:47:35;;;;;;;0.80;0.80;;;19.90;93.90;;;;;;5110872;28;20200;-62
2022/07/05 01:50:05;;;;;;;1.13;0.68;;;19.90;93.90;;;;;;5102035;28;20191;-61
2022/07/05 01:52:32;;;;;;;0.65;0.60;;;19.80;93.90;;;;;;5112437;28;20184;-62
2022/07/05 01:55:00;;;;;;;0.82;0.73;;;19.70;94.00;;;;;;5113317;28;20215;-61
2022/07/05 01:57:29;;;;;;;0.70;0.70;;;19.70;94.10;;;;;;5108235;28;20316;-62
2022/07/05 01:59:56;;;;;;;0.63;0.63;;;19.70;94.10;;;;;;5107426;28;20188;-61
2022/07/05 02:02:23;;;;;;;0.55;0.55;;;19.70;94.20;;;;;;5111077;28;20264;-62
2022/07/05 02:04:50;;;;;;;0.60;0.60;;;19.70;94.20;;;;;;5112923;28;20191;-61
2022/07/05 02:07:17;;;;;;;0.70;0.70;;;19.70;94.20;;;;;;5094084;28;20298;-61
2022/07/05 02:09:45;;;;;;;0.50;0.50;;;19.80;94.20;;;;;;5114575;28;20244;-60
2022/07/05 02:12:12;;;;;;;0.55;0.55;;;19.80;94.20;;;;;;5113909;28;20184;-60
2022/07/05 02:14:42;;;;;;;0.85;0.85;;;19.80;94.30;;;;;;5111738;28;20212;-60
2022/07/05 02:17:14;;;;;;;0.70;0.70;;;19.80;94.30;;;;;;5104670;28;20273;-60
2022/07/05 02:19:43;;;;;;;0.77;0.60;;;19.80;94.30;;;;;;5092481;28;20208;-60
2022/07/05 02:22:12;;;;;;;0.50;0.50;;;19.80;94.30;;;;;;5108321;28;20694;-61
2022/07/05 02:24:39;;;;;;;0.52;0.52;;;19.80;94.30;;;;;;5101224;28;20191;-60
2022/07/05 02:27:24;;;;;;;0.55;0.55;;;19.80;94.30;;;;;;5112186;28;20273;-60
2022/07/05 02:29:53;;;;;;;0.63;0.63;;;19.80;94.40;;;;;;5111508;28;20597;-61
2022/07/05 02:32:27;;;;;;;0.80;0.80;;;19.70;94.30;;;;;;5111645;28;20191;-61
2022/07/05 02:34:55;;;;;;;0.60;0.60;;;19.60;94.40;;;;;;5112729;28;20243;-61
2022/07/05 02:37:22;;;;;;;0.52;0.52;;;19.60;94.80;;;;;;5098948;28;20269;-61
2022/07/05 02:39:50;;;;;;;0.50;0.50;;;19.70;94.50;;;;;;5112551;28;20317;-61
2022/07/05 02:42:17;;;;;;;0.70;0.70;;;19.70;94.50;;;;;;5111933;28;20634;-61
2022/07/05 02:44:45;;;;;;;0.60;0.60;;;19.60;94.50;;;;;;5110484;28;20210;-60
2022/07/05 02:47:14;;;;;;;0.60;0.60;;;19.60;94.90;;;;;;5110907;28;20206;-64
2022/07/05 02:49:41;;;;;;;0.50;0.50;;;19.70;94.60;;;;;;5104336;28;20213;-61
2022/07/05 02:52:09;;;;;;;0.68;0.68;;;19.70;94.60;;;;;;5105442;28;20204;-61
2022/07/05 02:54:36;;;;;;;1.27;0.60;;;19.70;94.60;;;;;;5110157;28;20211;-61
2022/07/05 02:57:06;;;;;;;0.68;0.68;;;19.70;94.60;;;;;;5097858;28;20315;-61
2022/07/05 02:59:33;;;;;;;0.80;0.80;;;19.70;94.60;;;;;;5091790;28;20295;-61
2022/07/05 03:02:01;;;;;;;0.63;0.60;;;19.70;94.60;;;;;;5103114;28;20695;-61
2022/07/05 03:04:29;;;;;;;0.60;0.57;;;19.70;94.60;;;;;;5092176;28;20241;-61
2022/07/05 03:06:59;;;;;;;1.10;0.80;;;19.70;94.60;;;;;;5093381;28;20250;-61
2022/07/05 03:09:29;;;;;;;0.60;0.60;;;19.70;94.60;;;;;;5101170;28;20309;-61
2022/07/05 03:12:00;;;;;;;0.63;0.63;;;19.70;94.60;;;;;;5094791;28;20629;-61
2022/07/05 03:14:27;;;;;;;0.75;0.70;;;19.70;94.60;;;;;;5111001;28;20687;-60
2022/07/05 03:16:54;;;;;;;0.60;0.60;;;19.80;94.70;;;;;;5096657;28;20264;-61
2022/07/05 03:19:23;;;;;;;0.80;0.70;;;19.80;94.70;;;;;;5111800;28;20289;-60
2022/07/05 03:21:51;;;;;;;0.60;0.60;;;19.90;94.70;;;;;;5110928;28;20218;-61
2022/07/05 03:24:19;;;;;;;0.70;0.70;;;19.90;94.60;;;;;;5098783;28;20216;-61
2022/07/05 03:26:46;;;;;;;0.60;0.60;;;20.00;94.60;;;;;;5110812;28;20200;-60
2022/07/05 03:29:13;;;;;;;0.60;0.60;;;19.90;94.50;;;;;;5099232;28;20246;-61
2022/07/05 03:31:42;;;;;;;0.60;0.60;;;19.90;94.60;;;;;;5095677;28;20211;-61
2022/07/05 03:34:09;;;;;;;0.63;0.63;;;19.90;94.60;;;;;;5110549;28;20712;-60
2022/07/05 03:36:36;;;;;;;0.70;0.70;;;19.90;94.60;;;;;;5098911;28;20658;-61
2022/07/05 03:39:09;;;;;;;0.50;0.50;;;19.90;94.60;;;;;;5097186;28;20208;-61
2022/07/05 03:41:37;;;;;;;1.67;0.55;;;19.90;94.60;;;;;;5106542;28;20207;-61
2022/07/05 03:44:06;;;;;;;0.60;0.60;;;19.90;94.60;;;;;;5107988;28;20310;-61
2022/07/05 03:46:35;;;;;;;0.60;0.60;;;19.90;94.60;;;;;;5102063;28;20200;-60
2022/07/05 03:49:02;;;;;;;0.60;0.60;;;19.90;94.60;;;;;;5103148;28;20825;-61
2022/07/05 03:51:30;;;;;;;0.40;0.40;;;19.90;94.60;;;;;;5110824;28;20273;-60
2022/07/05 03:53:59;;;;;;;0.57;0.57;;;19.90;94.60;;;;;;5099168;28;20196;-61
2022/07/05 03:56:29;;;;;;;0.70;0.63;;;20.00;94.60;;;;;;5096587;28;20988;-62
2022/07/05 03:59:00;;;;;;;1.92;0.40;;;19.90;94.60;;;;;;5102784;28;20808;-61
2022/07/05 04:01:28;;;;;;;0.70;0.70;;;20.00;94.60;;;;;;5092897;28;20204;-62
2022/07/05 04:03:56;;;;;;;0.68;0.68;;;20.00;94.60;;;;;;5089569;28;20588;-61
2022/07/05 04:06:24;;;;;;;0.90;0.70;;;20.00;94.60;;;;;;5099308;28;20246;-62
2022/07/05 04:08:53;;;;;;;0.80;0.80;;;20.00;94.60;;;;;;5105408;28;20216;-61
2022/07/05 04:11:21;;;;;;;0.73;0.73;;;20.00;94.60;;;;;;5103209;28;20200;-61
2022/07/05 04:13:53;;;;;;;0.60;0.60;;;20.00;94.60;;;;;;5109103;28;20558;-61
2022/07/05 04:16:22;;;;;;;0.90;0.90;;;20.00;94.60;;;;;;5110335;28;20199;-61
2022/07/05 04:18:49;;;;;;;0.70;0.70;;;20.00;94.60;;;;;;5109013;28;20235;-62
2022/07/05 04:21:16;;;;;;;0.88;0.88;;;20.00;94.60;;;;;;5109618;28;20211;-61
2022/07/05 04:23:43;;;;;;;0.70;0.70;;;20.00;94.60;;;;;;5108261;28;20204;-60
2022/07/05 04:26:11;;;;;;;0.50;0.50;;;20.00;94.60;;;;;;5102839;28;20294;-61
2022/07/05 04:28:42;;;;;;;0.73;0.73;;;20.00;94.60;;;;;;5102322;28;20672;-60
2022/07/05 04:31:13;;;;;;;0.55;0.55;;;20.10;94.60;;;;;;5089286;28;20212;-61
2022/07/05 04:33:44;;;;;;;2.35;0.80;;;20.10;94.60;;;;;;5101453;28;20200;-61
2022/07/05 04:36:14;;;;;;;1.85;1.02;;;20.10;94.70;;;;;;5091122;28;20200;-60
2022/07/05 04:38:41;;;;;;;0.88;0.85;;;20.10;94.70;;;;;;5100351;28;20687;-60
2022/07/05 04:41:09;;;;;;;2.08;1.08;;;20.10;94.70;;;;;;5106801;28;20199;-61
2022/07/05 04:43:38;;;;;;;0.90;0.90;;;20.10;94.80;;;;;;5108978;28;20694;-60
2022/07/05 04:46:08;;;;;;;1.27;0.80;;;20.20;94.90;;;;;;5109099;28;20290;-60
2022/07/05 04:48:37;;;;;;;0.80;0.80;;;20.10;94.80;;;;;;5106503;28;20193;-60
2022/07/05 04:51:04;;;;;;;1.00;0.90;;;20.20;94.90;;;;;;5100073;28;20203;-61
2022/07/05 04:53:33;;;;;;;0.90;0.90;;;20.30;94.90;;;;;;5095107;28;20679;-61
2022/07/05 04:56:00;;;;;;;0.80;0.80;;;20.30;94.80;;;;;;5111385;28;20235;-60
2022/07/05 04:58:27;;;;;;;0.98;0.85;;;20.30;94.80;;;;;;5110645;28;20236;-61
2022/07/05 05:00:54;;;;;;;0.70;0.70;;;20.30;94.80;;;;;;5106395;28;20199;-60
2022/07/05 05:03:21;;;;;;;2.63;0.80;;;20.30;94.80;;;;;;5092604;28;20240;-60
2022/07/05 05:05:50;;;;;;;0.90;0.60;;;20.40;94.90;;;;;;5102689;28;20208;-61
2022/07/05 05:08:17;;;;;;;4.55;0.77;;;20.40;94.90;;;;;;5092688;28;20196;-62
2022/07/05 05:10:44;;;;;;;1.10;1.00;;;20.40;94.90;;;;;;5109402;28;20270;-61
2022/07/05 05:13:11;;;;;;;1.02;1.00;;;20.50;95.00;;;;;;5103282;28;20252;-61
2022/07/05 05:15:38;;;;;;;1.08;0.77;;;20.50;95.00;;;;;;5110674;28;20203;-61
2022/07/05 05:18:05;;;;;;;0.82;0.63;;;20.50;95.00;;;;;;5109019;28;20270;-61
2022/07/05 05:20:32;;;;;;;0.70;0.70;;;20.50;95.00;;;;;;5108610;28;20295;-61
2022/07/05 05:23:01;;;;;;;0.50;0.50;;;20.50;95.00;;;;;;5095793;28;20294;-61
2022/07/05 05:25:30;;;;;;;0.60;0.60;;;20.60;95.10;;;;;;5109569;28;20198;-62
2022/07/05 05:27:57;;;;;;;0.43;0.43;;;20.60;95.10;;;;;;5109863;28;20647;-61
2022/07/05 05:30:24;;;;;;;0.68;0.60;;;20.70;95.10;;;;;;5110551;28;20195;-60
2022/07/05 05:32:52;;;;;;;1.33;0.77;;;20.70;95.10;;;;;;5108824;28;20335;-63
2022/07/05 05:35:20;;;;;;;0.70;0.70;;;20.80;95.20;;;;;;5104213;28;20265;-60
2022/07/05 05:37:49;;;;;;;1.92;0.80;;;20.80;95.30;;;;;;5104649;28;20202;-61
2022/07/05 05:40:18;;;;;;;0.57;0.57;;;20.80;95.20;;;;;;5110419;28;20203;-62
2022/07/05 05:42:45;;;;;;;0.60;0.60;;;20.90;95.20;;;;;;5109446;28;20217;-61
2022/07/05 05:45:12;;;;;;;0.73;0.73;;;20.90;95.20;;;;;;5104847;28;20279;-61
2022/07/05 05:47:50;;;;;;;0.50;0.50;;;20.90;95.20;;;;;;5107598;28;20200;-61
2022/07/05 05:50:21;;;;;;;0.80;0.80;;;20.90;95.30;;;;;;5110675;28;20203;-60
2022/07/05 05:52:48;;;;;;;0.75;0.60;;;21.00;95.30;;;;;;5094009;28;20227;-61
2022/07/05 05:55:16;;;;;;;0.90;0.80;;;21.00;95.30;;;;;;5110483;28;20256;-61
2022/07/05 05:57:43;;;;;;;0.70;0.70;;;21.10;95.30;;;;;;5109802;28;20195;-62
2022/07/05 06:00:12;;;;;;;0.70;0.70;;;21.10;95.30;;;;;;5109931;28;20276;-61
2022/07/05 06:02:39;;;;;;;1.02;0.90;;;21.10;95.30;;;;;;5108885;28;20192;-62
2022/07/05 06:05:07;;;;;;;2.42;0.70;;;21.10;95.40;;;;;;5110449;28;20215;-62
2022/07/05 06:07:45;;;;;;;0.77;0.77;;;21.20;95.50;;;;;;5107950;28;20631;-62
2022/07/05 06:10:15;;;;;;;0.60;0.60;;;21.20;95.40;;;;;;5110331;28;20192;-61
2022/07/05 06:12:43;;;;;;;0.88;0.60;;;21.10;95.30;;;;;;5101389;28;20691;-60
2022/07/05 06:15:11;;;;;;;1.08;0.65;;;21.20;95.30;;;;;;5094735;28;20191;-62
2022/07/05 06:17:38;;;;;;;0.60;0.60;;;21.20;95.20;;;;;;5097206;28;20205;-61
2022/07/05 06:20:07;;;;;;;1.45;0.50;;;21.20;95.10;;;;;;5105518;28;20192;-61
2022/07/05 06:22:35;;;;;;;0.60;0.60;;;21.20;95.10;;;;;;5101880;28;20288;-61
2022/07/05 06:25:02;;;;;;;0.50;0.50;;;21.20;95.00;;;;;;5100368;28;20675;-61
2022/07/05 06:27:29;;;;;;;0.57;0.57;;;21.30;95.00;;;;;;5101524;28;20601;-61
2022/07/05 06:29:58;;;;;;;0.70;0.70;;;21.30;95.10;;;;;;5103827;28;20729;-61
2022/07/05 06:32:25;;;;;;;2.35;0.90;;;21.30;95.10;;;;;;5094332;28;20207;-62
2022/07/05 06:34:53;;;;;;;1.55;0.80;;;21.30;95.10;;;;;;5110168;28;20703;-61
2022/07/05 06:37:19;;;;;;;0.93;0.80;;;21.40;95.30;;;;;;5105903;28;20664;-61
2022/07/05 06:39:47;;;;;;;0.95;0.90;;;21.40;95.40;;;;;;5110654;28;20345;-62
2022/07/05 06:42:14;;;;;;;0.95;0.80;;;21.40;95.50;;;;;;5105785;28;20670;-61
2022/07/05 06:44:41;;;;;;;1.85;0.90;;;21.40;95.40;;;;;;5110615;28;20224;-61
2022/07/05 06:47:10;;;;;;;0.77;0.77;;;21.40;94.90;;;;;;5110298;28;20192;-62
2022/07/05 06:49:37;;;;;;;0.93;0.93;;;21.40;94.60;;;;;;5108618;28;20721;-61
2022/07/05 06:52:05;;;;;;;1.02;0.80;;;21.50;94.60;;;;;;5102005;28;20205;-61
2022/07/05 06:54:32;;;;;;;0.85;0.85;;;21.50;94.40;;;;;;5111133;28;20280;-61
2022/07/05 06:56:59;;;;;;;2.78;0.88;;;21.60;94.50;;;;;;5111250;28;20239;-61
2022/07/05 06:59:26;;;;;;;0.60;0.60;;;21.70;94.70;;;;;;5100824;28;20924;-61
2022/07/05 07:01:53;;;;;;;0.75;0.73;;;21.70;94.70;;;;;;5098435;28;20223;-61
2022/07/05 07:04:22;;;;;;;6.15;0.95;;;21.80;94.60;;;;;;5097483;28;20630;-61
2022/07/05 07:06:49;;;;;;;1.20;1.00;;;21.80;94.30;;;;;;5107797;28;20678;-61
2022/07/05 07:09:22;;;;;;;2.25;0.80;;;21.90;94.00;;;;;;5102550;28;20254;-60
2022/07/05 07:11:50;;;;;;;1.70;0.93;;;21.90;94.00;;;;;;5106393;28;20228;-61
2022/07/05 07:14:17;;;;;;;0.80;0.80;;;22.00;94.20;;;;;;5111825;28;20196;-61
2022/07/05 07:16:45;;;;;;;0.52;0.52;;;22.00;94.20;;;;;;5110717;28;20200;-61
2022/07/05 07:19:12;;;;;;;4.38;1.10;;;22.10;94.10;;;;;;5100922;28;20257;-62
2022/07/05 07:21:42;;;;;;;0.95;0.82;;;22.20;93.80;;;;;;5107770;28;20203;-62
2022/07/05 07:24:10;;;;;;;1.52;0.85;;;22.20;93.70;;;;;;5109544;28;20257;-61
2022/07/05 07:29:18;;;;;;;0.70;0.70;;;22.30;93.80;;;;;;5111520;28;20196;-61
2022/07/05 07:31:45;;;;;;;1.63;0.80;;;22.40;93.60;;;;;;5110266;28;20550;-60
2022/07/05 07:34:12;;;;;;;2.13;1.10;;;22.50;93.50;;;;;;5104877;28;20204;-61
2022/07/05 07:36:41;;;;;;;1.50;0.90;;;22.50;93.70;;;;;;5109754;28;20200;-61
2022/07/05 07:39:08;;;;;;;3.75;1.20;;;22.60;93.90;;;;;;5110826;28;20225;-61
2022/07/05 07:41:35;;;;;;;1.27;0.90;;;22.70;93.90;;;;;;5109825;28;20199;-61
2022/07/05 07:44:02;;;;;;;2.75;0.93;;;22.70;93.50;;;;;;5101582;28;20643;-60
2022/07/05 07:46:29;;;;;;;0.75;0.75;;;22.70;92.70;;;;;;5109416;28;20222;-61
2022/07/05 07:48:56;;;;;;;1.70;0.88;;;22.70;92.60;;;;;;5110307;28;20203;-62
2022/07/05 07:51:23;;;;;;;0.90;0.90;;;22.80;92.20;;;;;;5105724;28;20626;-60
2022/07/05 07:53:52;;;;;;;0.80;0.80;;;22.80;92.20;;;;;;5110891;28;20222;-60
2022/07/05 07:56:19;;;;;;;1.08;0.88;;;22.90;92.10;;;;;;5109479;28;20253;-60
2022/07/05 07:58:47;;;;;;;1.52;0.93;;;22.90;92.30;;;;;;5110591;28;20196;-60
2022/07/05 08:01:14;;;;;;;1.63;0.93;;;23.00;91.80;;;;;;5111136;28;20208;-59
2022/07/05 08:03:42;;;;;;;1.42;0.90;;;23.00;91.60;;;;;;5109026;28;20663;-60
2022/07/05 08:06:10;;;;;;;1.23;0.82;;;23.10;91.60;;;;;;5106294;28;20245;-60
2022/07/05 08:08:38;;;;;;;2.17;0.63;;;23.10;91.50;;;;;;5108183;28;20658;-59
2022/07/05 08:11:07;;;;;;;1.20;1.13;;;23.10;91.40;;;;;;5111207;28;20195;-60
2022/07/05 08:13:34;;;;;;;1.60;0.90;;;23.20;91.30;;;;;;5108809;28;20238;-60
2022/07/05 08:16:01;;;;;;;1.33;0.63;;;23.20;91.20;;;;;;5110487;28;20192;-60
2022/07/05 08:21:32;;;;;;;1.13;0.85;;;23.20;91.50;;;;;;5110824;28;20559;-59
2022/07/05 08:24:00;;;;;;;1.35;0.90;;;23.20;91.20;;;;;;5108062;28;20208;-60
2022/07/05 08:26:30;;;;;;;1.05;0.70;;;23.30;91.50;;;;;;5108488;28;20208;-61
2022/07/05 08:28:58;;;;;;;0.60;0.60;;;23.30;91.20;;;;;;5109057;28;20200;-60
2022/07/05 08:31:25;;;;;;;1.85;0.80;;;23.40;91.00;;;;;;5110105;28;20192;-60
2022/07/05 08:33:52;;;;;;;0.93;0.90;;;23.30;90.60;;;;;;5110740;28;20911;-60
2022/07/05 08:36:19;;;;;;;1.05;0.73;;;23.30;90.50;;;;;;5109070;28;20200;-59
2022/07/05 08:38:46;;;;;;;0.77;0.77;;;23.30;90.10;;;;;;5110519;28;20202;-61
2022/07/05 08:41:17;;;;;;;1.05;0.98;;;23.40;90.10;;;;;;5110564;28;20712;-60
2022/07/05 08:43:47;;;;;;;1.60;1.10;;;23.50;90.00;;;;;;5109293;28;20198;-60
2022/07/05 08:46:15;;;;;;;1.95;1.20;;;23.60;89.80;;;;;;5110374;28;20268;-60
2022/07/05 08:48:44;;;;;;;0.70;0.70;;;23.60;89.30;;;;;;5105512;28;20200;-60
2022/07/05 08:51:17;;;;;;;0.95;0.60;;;23.60;89.00;;;;;;5105681;28;20285;-60
2022/07/05 08:53:45;;;;;;;1.35;1.02;;;23.60;88.70;;;;;;5109658;28;20192;-60
2022/07/05 08:56:13;;;;;;;0.85;0.85;;;23.60;89.00;;;;;;5100343;28;21168;-60
2022/07/05 08:58:41;;;;;;;1.40;0.80;;;23.70;87.90;;;;;;5109223;28;20202;-61
2022/07/05 09:01:11;;;;;;;0.77;0.70;;;23.80;86.90;;;;;;5103404;28;20200;-61
2022/07/05 09:03:40;;;;;;;1.08;0.80;;;23.90;86.70;;;;;;5108037;28;20205;-61
2022/07/05 09:06:10;;;;;;;4.85;1.02;;;24.00;86.50;;;;;;5109146;28;20294;-61
2022/07/05 09:08:39;;;;;;;0.70;0.70;;;24.00;85.90;;;;;;5108836;28;20312;-60
2022/07/05 09:11:08;;;;;;;1.02;0.90;;;24.10;85.10;;;;;;5097938;28;20273;-60
2022/07/05 09:13:38;;;;;;;0.65;0.65;;;24.20;84.60;;;;;;5105672;28;20200;-59
2022/07/05 09:16:05;;;;;;;0.77;0.77;;;24.20;84.40;;;;;;5109477;28;20198;-60
2022/07/05 09:18:41;;;;;;;0.73;0.73;;;24.20;84.00;;;;;;5107146;28;20288;-60
2022/07/05 09:21:19;;;;;;;2.22;0.90;;;24.30;83.40;;;;;;5109679;28;20606;-60
2022/07/05 09:23:54;;;;;;;0.75;0.75;;;24.40;83.60;;;;;;5107065;28;20191;-60
2022/07/05 09:26:21;;;;;;;0.70;0.70;;;24.40;83.30;;;;;;5102676;28;20183;-60
2022/07/05 09:28:57;;;;;;;0.95;0.95;;;24.40;83.20;;;;;;5098882;28;20883;-60
2022/07/05 09:31:29;;;;;;;0.85;0.80;;;24.40;82.60;;;;;;5108483;28;20640;-61
2022/07/05 09:34:05;;;;;;;0.60;0.60;;;24.50;82.50;;;;;;5098607;28;20185;-60
2022/07/05 09:36:52;;;;;;;0.70;0.70;;;24.60;82.30;;;;;;5106923;28;20198;-59
2022/07/05 09:39:34;;;;;;;1.65;0.88;;;24.60;81.90;;;;;;5108960;28;20601;-61
2022/07/05 09:42:12;;;;;;;0.82;0.60;;;24.50;81.60;;;;;;5108639;28;20276;-60
2022/07/05 09:44:42;;;;;;;1.17;1.08;;;24.50;81.80;;;;;;5105370;28;20474;-60
2022/07/05 09:47:11;;;;;;;0.60;0.60;;;24.60;81.30;;;;;;5102930;28;20653;-61
2022/07/05 09:49:42;;;;;;;0.75;0.75;;;24.50;81.30;;;;;;5107115;28;20612;-62
2022/07/05 09:52:09;;;;;;;2.92;1.00;;;24.50;81.90;;;;;;5098481;28;20199;-61
2022/07/05 09:54:37;;;;;;;1.60;0.70;;;24.40;82.70;;;;;;5107786;28;20639;-60
2022/07/05 09:57:04;;;;;;;1.85;0.80;;;24.30;82.80;;;;;;5108303;28;20246;-60
2022/07/05 09:59:31;;;;;;;0.80;0.80;;;24.40;82.90;;;;;;5110786;28;20199;-61
2022/07/05 10:01:58;;;;;;;1.00;1.00;;;24.40;82.20;;;;;;5112802;28;20214;-60
2022/07/05 10:04:25;;;;;;;1.08;1.02;;;24.60;81.30;;;;;;5109824;28;20211;-60
2022/07/05 10:06:53;;;;;;;0.90;0.90;;;24.60;80.70;;;;;;5112757;28;20192;-60
2022/07/05 10:09:22;;;;;;;0.82;0.82;;;24.70;80.10;;;;;;5112740;28;20195;-60
2022/07/05 10:11:51;;;;;;;0.95;0.95;;;24.80;80.90;;;;;;5113498;28;20229;-60
2022/07/05 10:14:20;;;;;;;2.90;1.00;;;24.90;80.70;;;;;;5112828;28;20728;-61
2022/07/05 10:16:53;;;;;;;1.23;1.02;;;25.00;79.50;;;;;;5111865;28;20192;-60
2022/07/05 10:19:22;;;;;;;1.13;1.10;;;25.00;79.70;;;;;;5112673;28;20196;-60
2022/07/05 10:21:50;;;;;;;0.90;0.90;;;25.00;79.10;;;;;;5112426;28;20223;-60
2022/07/05 10:24:20;;;;;;;1.40;1.10;;;25.10;77.90;;;;;;5095918;28;20279;-60
2022/07/05 10:26:48;;;;;;;0.95;0.95;;;25.20;76.30;;;;;;5107258;28;20238;-60
2022/07/05 10:29:16;;;;;;;1.10;1.00;;;25.20;76.50;;;;;;5112877;28;20202;-61
2022/07/05 10:31:45;;;;;;;1.02;0.93;;;25.20;75.90;;;;;;5111806;28;20649;-61
2022/07/05 10:34:14;;;;;;;0.80;0.80;;;25.30;76.10;;;;;;5112851;28;20667;-60
2022/07/05 10:36:42;;;;;;;0.70;0.70;;;25.30;76.40;;;;;;5111407;28;20196;-60
2022/07/05 10:39:11;;;;;;;1.23;0.98;;;25.40;76.10;;;;;;5111551;28;20268;-59
2022/07/05 10:41:41;;;;;;;1.90;1.10;;;25.50;75.30;;;;;;5105495;28;20468;-60
2022/07/05 10:44:08;;;;;;;0.90;0.80;;;25.50;74.60;;;;;;5097140;28;20206;-59
2022/07/05 10:46:36;;;;;;;0.80;0.80;;;25.60;74.40;;;;;;5099822;28;20240;-60
2022/07/05 10:49:16;;;;;;;0.90;0.90;;;25.70;73.90;;;;;;5097525;28;20205;-60
2022/07/05 10:51:43;;;;;;;0.90;0.90;;;25.70;73.80;;;;;;5110508;28;20195;-60
2022/07/05 10:54:10;;;;;;;0.80;0.80;;;25.70;73.00;;;;;;5099776;28;20269;-61
2022/07/05 10:56:40;;;;;;;1.08;0.95;;;25.80;72.70;;;;;;5101590;28;20253;-64
2022/07/05 10:59:09;;;;;;;1.27;1.17;;;25.80;72.30;;;;;;5112035;28;20203;-60
2022/07/05 11:01:39;;;;;;;1.13;1.02;;;25.90;72.20;;;;;;5111889;28;20199;-60
2022/07/05 11:04:22;;;;;;;0.80;0.80;;;25.90;72.00;;;;;;5107121;28;20200;-60
2022/07/05 11:06:50;;;;;;;0.90;0.90;;;26.00;71.90;;;;;;5102581;28;20743;-60
2022/07/05 11:09:19;;;;;;;1.33;0.98;;;26.00;71.90;;;;;;5101359;28;20224;-60
2022/07/05 11:11:48;;;;;;;1.38;1.27;;;26.10;71.60;;;;;;5105763;28;20191;-60
2022/07/05 11:14:33;;;;;;;1.15;1.15;;;26.10;72.10;;;;;;5111546;28;20246;-60
2022/07/05 11:17:36;;;;;;;3.35;1.38;;;26.10;72.20;;;;;;5105931;28;20651;-60
2022/07/05 11:20:07;;;;;;;1.58;1.17;;;26.00;71.90;;;;;;5098422;28;20208;-60
2022/07/05 11:22:35;;;;;;;1.10;1.10;;;26.00;72.20;;;;;;5109285;28;20678;-61
2022/07/05 11:25:04;;;;;;;2.67;1.10;;;25.90;71.70;;;;;;5100842;28;20200;-61
2022/07/05 11:27:34;;;;;;;1.00;1.00;;;26.00;71.70;;;;;;5096536;28;20738;-59
2022/07/05 11:30:01;;;;;;;0.80;0.80;;;26.00;71.60;;;;;;5111978;28;20271;-59
2022/07/05 11:32:38;;;;;;;0.80;0.80;;;26.00;71.50;;;;;;5110562;28;20224;-60
2022/07/05 11:35:30;;;;;;;0.90;0.90;;;26.00;71.60;;;;;;5110118;28;20699;-60
2022/07/05 11:38:07;;;;;;;1.50;1.23;;;26.00;71.60;;;;;;5103793;28;20252;-61
2022/07/05 11:40:37;;;;;;;1.20;1.20;;;26.00;72.30;;;;;;5109278;28;20240;-60
2022/07/05 11:43:07;;;;;;;1.42;1.33;;;26.00;73.20;;;;;;5109159;28;20215;-60
2022/07/05 11:45:35;;;;;;;1.00;1.00;;;26.00;74.70;;;;;;5111449;28;20583;-59
2022/07/05 11:48:04;;;;;;;1.30;1.20;;;25.90;75.60;;;;;;5108444;28;20196;-59
2022/07/05 11:50:33;;;;;;;3.33;0.90;;;25.90;76.50;;;;;;5104761;28;20211;-60
2022/07/05 11:53:00;;;;;;;4.18;1.30;;;25.80;77.70;;;;;;5103356;28;20195;-60
2022/07/05 11:55:29;;;;;;;1.73;1.00;;;25.70;79.10;;;;;;5110796;28;20196;-60
2022/07/05 11:57:57;;;;;;;1.00;0.90;;;25.70;80.20;;;;;;5103578;28;20344;-59
2022/07/05 12:00:31;;;;;;;1.00;1.00;;;25.60;80.80;;;;;;5101103;28;20204;-60
2022/07/05 12:02:58;;;;;;;2.35;1.20;;;25.50;81.30;;;;;;5093181;28;20618;-61
2022/07/05 12:05:31;;;;;;;3.17;1.10;;;25.50;82.20;;;;;;5102220;28;20211;-60
2022/07/05 12:07:59;;;;;;;1.45;1.02;;;25.40;82.90;;;;;;5106236;28;20686;-60
2022/07/05 12:13:10;;;;;;;1.88;1.50;;;25.50;83.70;;;;;;5102778;28;20231;-59
2022/07/05 12:15:40;;;;;;;9.88;2.08;;;25.50;84.40;;;;;;5105838;28;20192;-59
2022/07/05 12:18:08;;;;;;;4.38;2.08;;;25.50;85.10;;;;;;5089708;28;20291;-60
2022/07/05 12:20:37;;;;;;;2.28;2.08;;;25.40;85.90;;;;;;5102483;28;20310;-60
2022/07/05 12:23:06;;;;;;;4.00;1.70;;;25.30;86.20;;;;;;5105589;28;20215;-60
2022/07/05 12:25:34;;;;;;;1.92;1.50;;;25.30;86.60;;;;;;5110364;28;20223;-60
2022/07/05 12:28:05;;;;;;;4.68;2.15;;;25.20;86.80;;;;;;5109152;28;20275;-60
2022/07/05 12:30:33;;;;;;;3.83;1.40;;;25.10;87.10;;;;;;5110258;28;20192;-59
2022/07/05 12:33:03;;;;;;;3.80;1.15;;;25.10;87.10;;;;;;5108227;28;20195;-59
2022/07/05 12:35:36;;;;;;;3.10;1.10;;;25.00;86.90;;;;;;5106280;28;20196;-60
2022/07/05 12:38:05;;;;;;;1.92;1.45;;;25.00;87.10;;;;;;5109746;28;20291;-60
2022/07/05 12:40:32;;;;;;;1.67;0.80;;;24.90;87.30;;;;;;5104346;28;20192;-60
2022/07/05 12:43:05;;;;;;;0.70;0.70;;;24.90;87.50;;;;;;5106386;28;20246;-64
2022/07/05 12:45:33;;;;;;;0.77;0.77;;;24.90;87.50;;;;;;5098337;28;20266;-60
2022/07/05 12:48:04;;;;;;;1.42;0.88;;;24.90;87.60;;;;;;5108872;28;20203;-60
2022/07/05 12:50:44;;;;;;;1.40;0.98;;;25.10;87.70;;;;;;5109361;28;20203;-60
2022/07/05 12:58:53;;;;;;;1.73;0.98;;;25.10;87.90;;;;;;5098322;28;20618;-59
2022/07/05 13:01:26;;;;;;;2.05;1.10;;;25.10;88.40;;;;;;5094234;28;20658;-60
2022/07/05 13:04:05;;;;;;;1.63;1.00;;;25.00;89.30;;;;;;5108715;28;20222;-61
2022/07/05 13:06:48;;;;;;;6.00;1.27;;;24.90;89.70;;;;;;5109355;28;20206;-61
2022/07/05 13:09:17;;;;;;;4.28;1.10;;;24.80;90.10;;;;;;5104271;28;20195;-60
2022/07/05 13:11:44;;;;;;;1.63;1.15;;;24.80;90.20;;;;;;5109420;28;20204;-61